WIZ3558 LBWN-LBSF
Flight info
| Callsign | WIZ3558 |
|---|---|
| Flight time | 0h 47m |
| Altitude | 26000 |
| Route | TOTKA N605 GOL |
| Aircraft | A20N/M-SDE2E3FGHIRWXY/LB1 |
Departure
| Time | 2026-04-30 14:01 |
|---|---|
| Airport | Varna Airport (LBWN) |
Arrival
| Time | 2026-04-30 14:48 |
|---|---|
| Airport | Sofia Airport (LBSF) |
| Time | Latitude | Longitude | Altitude | Speed | Heading |
|---|---|---|---|---|---|
| 2026-04-30 12:51 | 43.23531 | 27.82319 | 233 ft | 0 kts | 41° |
| 2026-04-30 13:16 | 43.23533 | 27.82320 | 232 ft | 1 kts | 41° |
| 2026-04-30 13:16 | 43.23541 | 27.82331 | 233 ft | 2 kts | 41° |
| 2026-04-30 13:16 | 43.23559 | 27.82352 | 232 ft | 4 kts | 41° |
| 2026-04-30 13:17 | 43.23593 | 27.82393 | 232 ft | 0 kts | 41° |
| 2026-04-30 13:21 | 43.23596 | 27.82396 | 232 ft | 2 kts | 41° |
| 2026-04-30 13:22 | 43.23590 | 27.82444 | 232 ft | 2 kts | 211° |
| 2026-04-30 13:22 | 43.23566 | 27.82375 | 232 ft | 5 kts | 261° |
| 2026-04-30 13:22 | 43.23580 | 27.82303 | 232 ft | 4 kts | 261° |
| 2026-04-30 13:23 | 43.23565 | 27.82269 | 233 ft | 5 kts | 224° |
| 2026-04-30 13:23 | 43.23491 | 27.82238 | 231 ft | 7 kts | 217° |
| 2026-04-30 13:24 | 43.23486 | 27.82086 | 231 ft | 10 kts | 277° |
| 2026-04-30 13:24 | 43.23508 | 27.81858 | 230 ft | 14 kts | 276° |
| 2026-04-30 13:25 | 43.23533 | 27.81566 | 228 ft | 17 kts | 276° |
| 2026-04-30 13:25 | 43.23565 | 27.81226 | 227 ft | 20 kts | 277° |
| 2026-04-30 13:29 | 43.23571 | 27.81177 | 229 ft | 1 kts | 279° |
| 2026-04-30 13:29 | 43.23571 | 27.81176 | 229 ft | 0 kts | 280° |
| 2026-04-30 13:32 | 43.23577 | 27.81119 | 226 ft | 0 kts | 274° |
| 2026-04-30 13:42 | 43.23531 | 27.82319 | 233 ft | 0 kts | 41° |
| 2026-04-30 13:45 | 43.23556 | 27.82351 | 232 ft | 18 kts | 42° |
| 2026-04-30 13:45 | 43.23570 | 27.82370 | 232 ft | 0 kts | 51° |
| 2026-04-30 13:49 | 43.23578 | 27.82383 | 233 ft | 8 kts | 48° |
| 2026-04-30 13:49 | 43.23591 | 27.82396 | 232 ft | 0 kts | 33° |
| 2026-04-30 13:53 | 43.23599 | 27.82406 | 232 ft | 2 kts | 47° |
| 2026-04-30 13:53 | 43.23603 | 27.82423 | 232 ft | 3 kts | 80° |
| 2026-04-30 13:54 | 43.23586 | 27.82456 | 235 ft | 1 kts | 169° |
| 2026-04-30 13:54 | 43.23579 | 27.82451 | 232 ft | 2 kts | 206° |
| 2026-04-30 13:54 | 43.23560 | 27.82432 | 234 ft | 5 kts | 221° |
| 2026-04-30 13:54 | 43.23530 | 27.82394 | 233 ft | 7 kts | 220° |
| 2026-04-30 13:55 | 43.23488 | 27.82343 | 232 ft | 8 kts | 238° |
| 2026-04-30 13:55 | 43.23480 | 27.82251 | 232 ft | 11 kts | 269° |
| 2026-04-30 13:55 | 43.23482 | 27.82130 | 231 ft | 14 kts | 275° |
| 2026-04-30 13:55 | 43.23496 | 27.81986 | 230 ft | 17 kts | 277° |
| 2026-04-30 13:56 | 43.23511 | 27.81817 | 230 ft | 19 kts | 277° |
| 2026-04-30 13:56 | 43.23529 | 27.81624 | 229 ft | 22 kts | 277° |
| 2026-04-30 13:56 | 43.23549 | 27.81409 | 228 ft | 24 kts | 275° |
| 2026-04-30 13:56 | 43.23569 | 27.81181 | 227 ft | 16 kts | 274° |
| 2026-04-30 13:57 | 43.23569 | 27.81171 | 227 ft | 0 kts | 274° |
| 2026-04-30 13:57 | 43.23570 | 27.81154 | 226 ft | 3 kts | 274° |
| 2026-04-30 13:57 | 43.23573 | 27.81110 | 226 ft | 6 kts | 274° |
| 2026-04-30 13:57 | 43.23575 | 27.81041 | 226 ft | 8 kts | 269° |
| 2026-04-30 13:58 | 43.23555 | 27.80957 | 226 ft | 10 kts | 232° |
| 2026-04-30 13:58 | 43.23446 | 27.80940 | 226 ft | 0 kts | 154° |
| 2026-04-30 13:59 | 43.23425 | 27.80954 | 225 ft | 8 kts | 151° |
| 2026-04-30 13:59 | 43.23371 | 27.81006 | 224 ft | 11 kts | 140° |
| 2026-04-30 13:59 | 43.23327 | 27.81085 | 225 ft | 0 kts | 110° |
| 2026-04-30 14:00 | 43.23284 | 27.81264 | 226 ft | 35 kts | 105° |
| 2026-04-30 14:00 | 43.23304 | 27.81392 | 226 ft | 3 kts | 103° |
| 2026-04-30 14:00 | 43.23291 | 27.81451 | 226 ft | 17 kts | 99° |
| 2026-04-30 14:01 | 43.23257 | 27.81847 | 230 ft | 84 kts | 96° |
| 2026-04-30 14:01 | 43.23149 | 27.83054 | 405 ft | 155 kts | 95° |
| 2026-04-30 14:01 | 43.23016 | 27.84614 | 1132 ft | 180 kts | 94° |
| 2026-04-30 14:01 | 43.22860 | 27.86509 | 1679 ft | 225 kts | 94° |
| 2026-04-30 14:02 | 43.22693 | 27.88873 | 2271 ft | 267 kts | 95° |
| 2026-04-30 14:02 | 43.22045 | 27.91304 | 3623 ft | 280 kts | 124° |
| 2026-04-30 14:02 | 43.20504 | 27.93012 | 4961 ft | 297 kts | 153° |
| 2026-04-30 14:02 | 43.18401 | 27.93594 | 5673 ft | 327 kts | 180° |
| 2026-04-30 14:03 | 43.16123 | 27.92746 | 6396 ft | 353 kts | 208° |
| 2026-04-30 14:03 | 43.14297 | 27.90542 | 7800 ft | 348 kts | 233° |
| 2026-04-30 14:03 | 43.12876 | 27.87978 | 9812 ft | 328 kts | 232° |
| 2026-04-30 14:03 | 43.11407 | 27.85665 | 11509 ft | 319 kts | 228° |
| 2026-04-30 14:04 | 43.09810 | 27.83549 | 12902 ft | 320 kts | 224° |
| 2026-04-30 14:04 | 43.08199 | 27.81435 | 14136 ft | 322 kts | 231° |
| 2026-04-30 14:04 | 43.07098 | 27.78788 | 15145 ft | 322 kts | 253° |
| 2026-04-30 14:04 | 43.06900 | 27.75781 | 16197 ft | 326 kts | 271° |
| 2026-04-30 14:05 | 43.07145 | 27.72690 | 17318 ft | 328 kts | 274° |
| 2026-04-30 14:05 | 43.07459 | 27.69597 | 18469 ft | 328 kts | 274° |
| 2026-04-30 14:05 | 43.07766 | 27.66516 | 19496 ft | 326 kts | 274° |
| 2026-04-30 14:05 | 43.08057 | 27.63448 | 20550 ft | 324 kts | 274° |
| 2026-04-30 14:06 | 43.08338 | 27.60375 | 21415 ft | 329 kts | 274° |
| 2026-04-30 14:06 | 43.08903 | 27.53940 | 22378 ft | 350 kts | 274° |
| 2026-04-30 14:07 | 43.09482 | 27.47283 | 23271 ft | 354 kts | 273° |
| 2026-04-30 14:07 | 43.09771 | 27.43924 | 23707 ft | 357 kts | 273° |
| 2026-04-30 14:07 | 43.10061 | 27.40550 | 24089 ft | 359 kts | 274° |
| 2026-04-30 14:08 | 43.11317 | 27.33874 | 25359 ft | 367 kts | 287° |
| 2026-04-30 14:08 | 43.12310 | 27.30648 | 25887 ft | 368 kts | 288° |
| 2026-04-30 14:08 | 43.14363 | 27.24249 | 26190 ft | 367 kts | 289° |
| 2026-04-30 14:09 | 43.15375 | 27.21082 | 26177 ft | 368 kts | 288° |
| 2026-04-30 14:09 | 43.16397 | 27.17872 | 26180 ft | 368 kts | 288° |
| 2026-04-30 14:09 | 43.18439 | 27.11429 | 26180 ft | 369 kts | 288° |
| 2026-04-30 14:10 | 43.19408 | 27.08176 | 26184 ft | 367 kts | 284° |
| 2026-04-30 14:10 | 43.20028 | 27.04810 | 26188 ft | 363 kts | 275° |
| 2026-04-30 14:10 | 43.20193 | 27.01376 | 26187 ft | 360 kts | 268° |
| 2026-04-30 14:10 | 43.20157 | 26.97948 | 26175 ft | 360 kts | 266° |
| 2026-04-30 14:11 | 43.20033 | 26.94523 | 26191 ft | 360 kts | 265° |
| 2026-04-30 14:11 | 43.19872 | 26.91108 | 26179 ft | 360 kts | 264° |
| 2026-04-30 14:11 | 43.19704 | 26.87685 | 26189 ft | 360 kts | 264° |
| 2026-04-30 14:11 | 43.19553 | 26.84262 | 26183 ft | 360 kts | 265° |
| 2026-04-30 14:12 | 43.19446 | 26.80842 | 26191 ft | 360 kts | 266° |
| 2026-04-30 14:12 | 43.19361 | 26.77411 | 26210 ft | 360 kts | 266° |
| 2026-04-30 14:12 | 43.19281 | 26.73982 | 26184 ft | 360 kts | 266° |
| 2026-04-30 14:12 | 43.19200 | 26.70550 | 26187 ft | 360 kts | 266° |
| 2026-04-30 14:13 | 43.19113 | 26.67118 | 26188 ft | 360 kts | 265° |
| 2026-04-30 14:13 | 43.19020 | 26.63684 | 26188 ft | 361 kts | 265° |
| 2026-04-30 14:13 | 43.18924 | 26.60296 | 26186 ft | 361 kts | 265° |
| 2026-04-30 14:13 | 43.18824 | 26.56862 | 26188 ft | 361 kts | 265° |
| 2026-04-30 14:14 | 43.18719 | 26.53377 | 26186 ft | 362 kts | 265° |
| 2026-04-30 14:14 | 43.18615 | 26.49933 | 26171 ft | 361 kts | 266° |
| 2026-04-30 14:14 | 43.18513 | 26.46546 | 26190 ft | 361 kts | 266° |
| 2026-04-30 14:14 | 43.18409 | 26.43111 | 26189 ft | 361 kts | 266° |
| 2026-04-30 14:15 | 43.18303 | 26.39672 | 26186 ft | 361 kts | 265° |
| 2026-04-30 14:15 | 43.18196 | 26.36237 | 26201 ft | 361 kts | 265° |
| 2026-04-30 14:15 | 43.18088 | 26.32799 | 26198 ft | 361 kts | 265° |
| 2026-04-30 14:15 | 43.17979 | 26.29357 | 26196 ft | 362 kts | 265° |
| 2026-04-30 14:16 | 43.17869 | 26.25912 | 26196 ft | 362 kts | 265° |
| 2026-04-30 14:16 | 43.17758 | 26.22476 | 26195 ft | 362 kts | 265° |
| 2026-04-30 14:16 | 43.17646 | 26.19040 | 26200 ft | 361 kts | 265° |
| 2026-04-30 14:16 | 43.17533 | 26.15596 | 26203 ft | 362 kts | 265° |
| 2026-04-30 14:17 | 43.17419 | 26.12158 | 26201 ft | 362 kts | 265° |
| 2026-04-30 14:17 | 43.17303 | 26.08714 | 26207 ft | 362 kts | 265° |
| 2026-04-30 14:17 | 43.17187 | 26.05270 | 26212 ft | 362 kts | 265° |
| 2026-04-30 14:17 | 43.17070 | 26.01833 | 26207 ft | 362 kts | 265° |
| 2026-04-30 14:18 | 43.16951 | 25.98388 | 26213 ft | 362 kts | 265° |
| 2026-04-30 14:18 | 43.16831 | 25.94944 | 26219 ft | 362 kts | 265° |
| 2026-04-30 14:18 | 43.16589 | 25.88041 | 26212 ft | 363 kts | 265° |
| 2026-04-30 14:19 | 43.16344 | 25.81183 | 26210 ft | 363 kts | 265° |
| 2026-04-30 14:19 | 43.16219 | 25.77732 | 26200 ft | 363 kts | 265° |
| 2026-04-30 14:19 | 43.16094 | 25.74284 | 26216 ft | 362 kts | 265° |
| 2026-04-30 14:20 | 43.15967 | 25.70837 | 26207 ft | 362 kts | 265° |
| 2026-04-30 14:20 | 43.15839 | 25.67397 | 26206 ft | 362 kts | 265° |
| 2026-04-30 14:20 | 43.15581 | 25.60514 | 26210 ft | 362 kts | 265° |
| 2026-04-30 14:21 | 43.15450 | 25.57074 | 26205 ft | 362 kts | 265° |
| 2026-04-30 14:21 | 43.15318 | 25.53629 | 26218 ft | 362 kts | 265° |
| 2026-04-30 14:21 | 43.15051 | 25.46741 | 26214 ft | 362 kts | 265° |
| 2026-04-30 14:22 | 43.14916 | 25.43299 | 26221 ft | 362 kts | 265° |
| 2026-04-30 14:22 | 43.14643 | 25.36405 | 26232 ft | 362 kts | 265° |
| 2026-04-30 14:22 | 43.14505 | 25.32955 | 26228 ft | 363 kts | 265° |
| 2026-04-30 14:23 | 43.14225 | 25.26062 | 26249 ft | 363 kts | 265° |
| 2026-04-30 14:23 | 43.13941 | 25.19162 | 26251 ft | 363 kts | 265° |
| 2026-04-30 14:24 | 43.13653 | 25.12261 | 26277 ft | 363 kts | 264° |
| 2026-04-30 14:24 | 43.13507 | 25.08809 | 26265 ft | 363 kts | 264° |
| 2026-04-30 14:25 | 43.13213 | 25.01935 | 25362 ft | 359 kts | 265° |
| 2026-04-30 14:25 | 43.12918 | 24.95121 | 23806 ft | 358 kts | 265° |
| 2026-04-30 14:26 | 43.12622 | 24.88363 | 22114 ft | 354 kts | 265° |
| 2026-04-30 14:26 | 43.12475 | 24.85015 | 21340 ft | 351 kts | 265° |
| 2026-04-30 14:26 | 43.12179 | 24.78402 | 20343 ft | 347 kts | 265° |
| 2026-04-30 14:27 | 43.12029 | 24.75103 | 20276 ft | 348 kts | 265° |
| 2026-04-30 14:27 | 43.11879 | 24.71805 | 20284 ft | 347 kts | 264° |
| 2026-04-30 14:27 | 43.11728 | 24.68511 | 20271 ft | 346 kts | 264° |
| 2026-04-30 14:28 | 43.11424 | 24.61937 | 20279 ft | 346 kts | 264° |
| 2026-04-30 14:28 | 43.11273 | 24.58701 | 20283 ft | 345 kts | 264° |
| 2026-04-30 14:28 | 43.11117 | 24.55378 | 20282 ft | 345 kts | 264° |
| 2026-04-30 14:28 | 43.10963 | 24.52103 | 20281 ft | 345 kts | 264° |
| 2026-04-30 14:29 | 43.10652 | 24.45580 | 20283 ft | 346 kts | 264° |
| 2026-04-30 14:29 | 43.10387 | 24.40085 | 20283 ft | 346 kts | 264° |
| 2026-04-30 14:30 | 43.09858 | 24.29224 | 19442 ft | 340 kts | 264° |
| 2026-04-30 14:31 | 43.09203 | 24.22854 | 17800 ft | 337 kts | 251° |
| 2026-04-30 14:31 | 43.06789 | 24.17369 | 16115 ft | 338 kts | 234° |
| 2026-04-30 14:31 | 43.05323 | 24.14875 | 15363 ft | 336 kts | 233° |
| 2026-04-30 14:32 | 43.02384 | 24.09928 | 13812 ft | 334 kts | 233° |
| 2026-04-30 14:32 | 43.00926 | 24.07463 | 12991 ft | 334 kts | 233° |
| 2026-04-30 14:32 | 42.99471 | 24.05001 | 12194 ft | 332 kts | 233° |
| 2026-04-30 14:33 | 42.98023 | 24.02549 | 11413 ft | 331 kts | 233° |
| 2026-04-30 14:33 | 42.95157 | 23.97698 | 10221 ft | 326 kts | 233° |
| 2026-04-30 14:33 | 42.93733 | 23.95291 | 10024 ft | 326 kts | 233° |
| 2026-04-30 14:34 | 42.92320 | 23.92905 | 10007 ft | 314 kts | 233° |
| 2026-04-30 14:34 | 42.90990 | 23.90668 | 9990 ft | 293 kts | 233° |
| 2026-04-30 14:34 | 42.89743 | 23.88568 | 9790 ft | 278 kts | 233° |
| 2026-04-30 14:34 | 42.88549 | 23.86555 | 9587 ft | 267 kts | 234° |
| 2026-04-30 14:35 | 42.86679 | 23.83404 | 9309 ft | 248 kts | 234° |
| 2026-04-30 14:35 | 42.85245 | 23.81043 | 9005 ft | 238 kts | 230° |
| 2026-04-30 14:35 | 42.83965 | 23.79611 | 8641 ft | 241 kts | 213° |
| 2026-04-30 14:36 | 42.82408 | 23.78831 | 8268 ft | 244 kts | 193° |
| 2026-04-30 14:36 | 42.80721 | 23.78539 | 8028 ft | 245 kts | 188° |
| 2026-04-30 14:36 | 42.79006 | 23.78456 | 7990 ft | 248 kts | 176° |
| 2026-04-30 14:36 | 42.77345 | 23.79094 | 7999 ft | 251 kts | 150° |
| 2026-04-30 14:37 | 42.76063 | 23.80659 | 7988 ft | 248 kts | 121° |
| 2026-04-30 14:37 | 42.75446 | 23.82802 | 8001 ft | 243 kts | 97° |
| 2026-04-30 14:37 | 42.75242 | 23.85085 | 8002 ft | 243 kts | 92° |
| 2026-04-30 14:37 | 42.75118 | 23.87375 | 7999 ft | 243 kts | 90° |
| 2026-04-30 14:38 | 42.74994 | 23.89676 | 8000 ft | 243 kts | 90° |
| 2026-04-30 14:38 | 42.74865 | 23.91971 | 8003 ft | 244 kts | 92° |
| 2026-04-30 14:38 | 42.74652 | 23.94269 | 7992 ft | 246 kts | 103° |
| 2026-04-30 14:38 | 42.73894 | 23.96330 | 8000 ft | 246 kts | 131° |
| 2026-04-30 14:39 | 42.72503 | 23.97651 | 7993 ft | 245 kts | 163° |
| 2026-04-30 14:39 | 42.70837 | 23.97957 | 7993 ft | 241 kts | 188° |
| 2026-04-30 14:39 | 42.69168 | 23.97730 | 7992 ft | 241 kts | 196° |
| 2026-04-30 14:40 | 42.66685 | 23.95171 | 7786 ft | 224 kts | 250° |
| 2026-04-30 14:40 | 42.66385 | 23.93129 | 7292 ft | 221 kts | 275° |
| 2026-04-30 14:40 | 42.66481 | 23.91063 | 6835 ft | 221 kts | 280° |
| 2026-04-30 14:40 | 42.66683 | 23.88970 | 6250 ft | 225 kts | 283° |
| 2026-04-30 14:41 | 42.66908 | 23.86881 | 6059 ft | 221 kts | 282° |
| 2026-04-30 14:41 | 42.67089 | 23.84861 | 6062 ft | 207 kts | 281° |
| 2026-04-30 14:41 | 42.67221 | 23.82956 | 6074 ft | 201 kts | 280° |
| 2026-04-30 14:41 | 42.67329 | 23.81061 | 6081 ft | 201 kts | 279° |
| 2026-04-30 14:42 | 42.67432 | 23.79153 | 6084 ft | 203 kts | 279° |
| 2026-04-30 14:42 | 42.67541 | 23.77237 | 6082 ft | 204 kts | 279° |
| 2026-04-30 14:42 | 42.67656 | 23.75317 | 6090 ft | 204 kts | 280° |
| 2026-04-30 14:42 | 42.67770 | 23.73397 | 6090 ft | 204 kts | 279° |
| 2026-04-30 14:43 | 42.67883 | 23.71477 | 5993 ft | 203 kts | 280° |
| 2026-04-30 14:43 | 42.67996 | 23.69565 | 5726 ft | 202 kts | 280° |
| 2026-04-30 14:43 | 42.68109 | 23.67672 | 5429 ft | 198 kts | 279° |
| 2026-04-30 14:43 | 42.68215 | 23.65850 | 5123 ft | 189 kts | 280° |
| 2026-04-30 14:44 | 42.68319 | 23.64109 | 4826 ft | 180 kts | 280° |
| 2026-04-30 14:44 | 42.68416 | 23.62473 | 4571 ft | 166 kts | 278° |
| 2026-04-30 14:44 | 42.68503 | 23.60994 | 4363 ft | 153 kts | 278° |
| 2026-04-30 14:44 | 42.68589 | 23.59556 | 4159 ft | 149 kts | 278° |
| 2026-04-30 14:45 | 42.68672 | 23.58169 | 3955 ft | 149 kts | 278° |
| 2026-04-30 14:45 | 42.68756 | 23.56766 | 3713 ft | 149 kts | 277° |
| 2026-04-30 14:45 | 42.68839 | 23.55363 | 3428 ft | 149 kts | 276° |
| 2026-04-30 14:45 | 42.68922 | 23.53953 | 3212 ft | 150 kts | 276° |
| 2026-04-30 14:46 | 42.69005 | 23.52552 | 3032 ft | 145 kts | 276° |
| 2026-04-30 14:46 | 42.69081 | 23.51252 | 2844 ft | 131 kts | 276° |
| 2026-04-30 14:46 | 42.69154 | 23.50038 | 2695 ft | 128 kts | 276° |
| 2026-04-30 14:46 | 42.69201 | 23.49240 | 2583 ft | 128 kts | 276° |
| 2026-04-30 14:47 | 42.69282 | 23.48039 | 2427 ft | 128 kts | 277° |
| 2026-04-30 14:47 | 42.69347 | 23.46831 | 2274 ft | 129 kts | 275° |
| 2026-04-30 14:47 | 42.69416 | 23.45622 | 2105 ft | 128 kts | 276° |
| 2026-04-30 14:47 | 42.69489 | 23.44414 | 1961 ft | 128 kts | 275° |
| 2026-04-30 14:48 | 42.69553 | 23.43207 | 1781 ft | 126 kts | 276° |
| 2026-04-30 14:48 | 42.69637 | 23.42036 | 1745 ft | 119 kts | 284° |
| 2026-04-30 14:48 | 42.69678 | 23.41279 | 1752 ft | 37 kts | 274° |
| 2026-04-30 14:48 | 42.69687 | 23.41107 | 1751 ft | 29 kts | 274° |
| 2026-04-30 14:49 | 42.69705 | 23.40801 | 1748 ft | 32 kts | 275° |
| 2026-04-30 14:49 | 42.69717 | 23.40518 | 1748 ft | 28 kts | 274° |
| 2026-04-30 14:49 | 42.69731 | 23.40267 | 1746 ft | 26 kts | 274° |
| 2026-04-30 14:49 | 42.69745 | 23.40040 | 1749 ft | 22 kts | 274° |
| 2026-04-30 14:50 | 42.69760 | 23.39657 | 1748 ft | 19 kts | 255° |
| 2026-04-30 14:50 | 42.69660 | 23.39590 | 1746 ft | 17 kts | 185° |
| 2026-04-30 14:51 | 42.69421 | 23.39563 | 1746 ft | 17 kts | 185° |
| 2026-04-30 14:51 | 42.69306 | 23.39549 | 1744 ft | 16 kts | 184° |
| 2026-04-30 14:51 | 42.69281 | 23.39706 | 1742 ft | 10 kts | 68° |
| 2026-04-30 14:52 | 42.69286 | 23.39796 | 1748 ft | 10 kts | 105° |
| 2026-04-30 14:52 | 42.69244 | 23.39966 | 1746 ft | 9 kts | 114° |
| 2026-04-30 14:52 | 42.69217 | 23.40049 | 1746 ft | 10 kts | 112° |
| 2026-04-30 14:53 | 42.69145 | 23.40165 | 1749 ft | 5 kts | 190° |